sensor_id;sensor_type;location;lat;lon;timestamp;pressure;altitude;pressure_sealevel;temperature
73685;BMP280;61985;51.070;14.064;2023-05-24T00:01:39;98878.44;;;10.27
73685;BMP280;61985;51.070;14.064;2023-05-24T00:04:07;98890.03;;;10.24
73685;BMP280;61985;51.070;14.064;2023-05-24T00:06:32;98901.50;;;10.28
73685;BMP280;61985;51.070;14.064;2023-05-24T00:08:59;98905.38;;;10.27
73685;BMP280;61985;51.070;14.064;2023-05-24T00:11:24;98905.44;;;10.23
73685;BMP280;61985;51.070;14.064;2023-05-24T00:13:52;98908.97;;;10.20
73685;BMP280;61985;51.070;14.064;2023-05-24T00:16:17;98898.69;;;10.15
73685;BMP280;61985;51.070;14.064;2023-05-24T00:18:42;98902.13;;;10.16
73685;BMP280;61985;51.070;14.064;2023-05-24T00:21:14;98899.31;;;10.23
73685;BMP280;61985;51.070;14.064;2023-05-24T00:23:40;98905.16;;;10.18
73685;BMP280;61985;51.070;14.064;2023-05-24T00:26:07;98907.50;;;10.16
73685;BMP280;61985;51.070;14.064;2023-05-24T00:28:33;98915.53;;;10.19
73685;BMP280;61985;51.070;14.064;2023-05-24T00:30:58;98904.00;;;10.19
73685;BMP280;61985;51.070;14.064;2023-05-24T00:33:24;98910.19;;;10.16
73685;BMP280;61985;51.070;14.064;2023-05-24T00:35:50;98909.22;;;10.06
73685;BMP280;61985;51.070;14.064;2023-05-24T00:38:24;98907.09;;;10.17
73685;BMP280;61985;51.070;14.064;2023-05-24T00:40:51;98900.97;;;10.17
73685;BMP280;61985;51.070;14.064;2023-05-24T00:43:16;98910.06;;;10.23
73685;BMP280;61985;51.070;14.064;2023-05-24T00:45:42;98920.97;;;10.16
73685;BMP280;61985;51.070;14.064;2023-05-24T00:48:08;98918.06;;;10.06
73685;BMP280;61985;51.070;14.064;2023-05-24T00:50:34;98907.69;;;10.05
73685;BMP280;61985;51.070;14.064;2023-05-24T00:53:02;98907.38;;;10.03
73685;BMP280;61985;51.070;14.064;2023-05-24T00:55:28;98905.00;;;10.05
73685;BMP280;61985;51.070;14.064;2023-05-24T00:57:55;98907.41;;;9.99
73685;BMP280;61985;51.070;14.064;2023-05-24T01:00:22;98918.41;;;10.08
73685;BMP280;61985;51.070;14.064;2023-05-24T01:02:48;98918.91;;;10.03
73685;BMP280;61985;51.070;14.064;2023-05-24T01:05:14;98920.63;;;9.94
73685;BMP280;61985;51.070;14.064;2023-05-24T01:08:12;98922.94;;;9.91
73685;BMP280;61985;51.070;14.064;2023-05-24T01:10:56;98923.22;;;9.97
73685;BMP280;61985;51.070;14.064;2023-05-24T01:14:02;98926.00;;;9.94
73685;BMP280;61985;51.070;14.064;2023-05-24T01:16:37;98926.66;;;9.98
73685;BMP280;61985;51.070;14.064;2023-05-24T01:19:37;98919.50;;;9.91
73685;BMP280;61985;51.070;14.064;2023-05-24T01:27:35;98926.88;;;9.87
73685;BMP280;61985;51.070;14.064;2023-05-24T01:30:02;98924.19;;;9.87
73685;BMP280;61985;51.070;14.064;2023-05-24T01:32:28;98929.56;;;9.87
73685;BMP280;61985;51.070;14.064;2023-05-24T01:34:54;98928.06;;;9.86
73685;BMP280;61985;51.070;14.064;2023-05-24T01:37:19;98928.38;;;9.88
73685;BMP280;61985;51.070;14.064;2023-05-24T01:39:45;98929.28;;;9.81
73685;BMP280;61985;51.070;14.064;2023-05-24T01:42:31;98927.50;;;9.71
73685;BMP280;61985;51.070;14.064;2023-05-24T01:45:13;98931.50;;;9.86
73685;BMP280;61985;51.070;14.064;2023-05-24T01:50:56;98936.50;;;10.08
73685;BMP280;61985;51.070;14.064;2023-05-24T01:53:23;98932.38;;;10.03
73685;BMP280;61985;51.070;14.064;2023-05-24T01:55:54;98931.81;;;9.88
73685;BMP280;61985;51.070;14.064;2023-05-24T01:58:22;98925.53;;;9.75
73685;BMP280;61985;51.070;14.064;2023-05-24T02:00:47;98933.28;;;9.69
73685;BMP280;61985;51.070;14.064;2023-05-24T02:03:13;98933.50;;;9.59
73685;BMP280;61985;51.070;14.064;2023-05-24T02:05:40;98937.38;;;9.54
73685;BMP280;61985;51.070;14.064;2023-05-24T02:08:05;98929.81;;;9.49
73685;BMP280;61985;51.070;14.064;2023-05-24T02:10:31;98928.47;;;9.33
73685;BMP280;61985;51.070;14.064;2023-05-24T02:12:56;98926.69;;;9.23
73685;BMP280;61985;51.070;14.064;2023-05-24T02:15:23;98927.03;;;9.29
73685;BMP280;61985;51.070;14.064;2023-05-24T02:17:50;98930.06;;;9.31
73685;BMP280;61985;51.070;14.064;2023-05-24T02:20:19;98927.03;;;9.25
73685;BMP280;61985;51.070;14.064;2023-05-24T02:22:47;98922.81;;;9.28
73685;BMP280;61985;51.070;14.064;2023-05-24T02:25:12;98923.59;;;9.25
73685;BMP280;61985;51.070;14.064;2023-05-24T02:27:37;98919.09;;;9.18
73685;BMP280;61985;51.070;14.064;2023-05-24T02:30:04;98922.16;;;9.20
73685;BMP280;61985;51.070;14.064;2023-05-24T02:32:30;98932.25;;;9.12
73685;BMP280;61985;51.070;14.064;2023-05-24T02:34:55;98928.81;;;9.12
73685;BMP280;61985;51.070;14.064;2023-05-24T02:37:23;98923.88;;;9.07
73685;BMP280;61985;51.070;14.064;2023-05-24T02:39:49;98927.41;;;9.00
73685;BMP280;61985;51.070;14.064;2023-05-24T02:42:14;98930.34;;;9.13
73685;BMP280;61985;51.070;14.064;2023-05-24T02:44:39;98927.81;;;8.99
73685;BMP280;61985;51.070;14.064;2023-05-24T02:47:06;98925.13;;;8.99
73685;BMP280;61985;51.070;14.064;2023-05-24T02:49:32;98932.84;;;8.97
73685;BMP280;61985;51.070;14.064;2023-05-24T02:51:57;98923.63;;;8.94
73685;BMP280;61985;51.070;14.064;2023-05-24T02:54:23;98925.25;;;8.91
73685;BMP280;61985;51.070;14.064;2023-05-24T02:56:48;98923.63;;;8.98
73685;BMP280;61985;51.070;14.064;2023-05-24T02:59:13;98923.22;;;8.99
73685;BMP280;61985;51.070;14.064;2023-05-24T03:01:39;98919.03;;;8.94
73685;BMP280;61985;51.070;14.064;2023-05-24T03:04:04;98924.16;;;8.85
73685;BMP280;61985;51.070;14.064;2023-05-24T03:06:30;98921.69;;;8.98
73685;BMP280;61985;51.070;14.064;2023-05-24T03:08:55;98926.16;;;9.08
73685;BMP280;61985;51.070;14.064;2023-05-24T03:11:21;98917.19;;;8.88
73685;BMP280;61985;51.070;14.064;2023-05-24T03:13:47;98922.16;;;8.89
73685;BMP280;61985;51.070;14.064;2023-05-24T03:16:13;98918.25;;;8.94
73685;BMP280;61985;51.070;14.064;2023-05-24T03:18:38;98922.97;;;8.86
73685;BMP280;61985;51.070;14.064;2023-05-24T03:21:04;98931.44;;;8.85
73685;BMP280;61985;51.070;14.064;2023-05-24T03:23:29;98925.72;;;8.83
73685;BMP280;61985;51.070;14.064;2023-05-24T03:25:54;98929.88;;;8.87
73685;BMP280;61985;51.070;14.064;2023-05-24T03:28:20;98929.22;;;8.80
73685;BMP280;61985;51.070;14.064;2023-05-24T03:30:46;98934.13;;;8.85
73685;BMP280;61985;51.070;14.064;2023-05-24T03:33:11;98931.56;;;8.74
73685;BMP280;61985;51.070;14.064;2023-05-24T03:35:37;98921.56;;;8.78
73685;BMP280;61985;51.070;14.064;2023-05-24T03:38:02;98931.16;;;8.79
73685;BMP280;61985;51.070;14.064;2023-05-24T03:40:27;98934.84;;;8.89
73685;BMP280;61985;51.070;14.064;2023-05-24T03:42:56;98939.09;;;8.90
73685;BMP280;61985;51.070;14.064;2023-05-24T03:45:21;98939.09;;;8.90
73685;BMP280;61985;51.070;14.064;2023-05-24T03:47:47;98936.78;;;8.88
73685;BMP280;61985;51.070;14.064;2023-05-24T03:50:12;98945.56;;;8.92
73685;BMP280;61985;51.070;14.064;2023-05-24T03:52:38;98943.19;;;8.98
73685;BMP280;61985;51.070;14.064;2023-05-24T03:55:04;98948.22;;;8.96
73685;BMP280;61985;51.070;14.064;2023-05-24T03:57:29;98957.50;;;8.91
73685;BMP280;61985;51.070;14.064;2023-05-24T03:59:55;98956.66;;;8.94
73685;BMP280;61985;51.070;14.064;2023-05-24T04:02:20;98956.75;;;8.87
73685;BMP280;61985;51.070;14.064;2023-05-24T04:04:45;98969.75;;;8.92
73685;BMP280;61985;51.070;14.064;2023-05-24T04:07:11;98962.03;;;8.94
73685;BMP280;61985;51.070;14.064;2023-05-24T04:09:38;98964.19;;;9.07
73685;BMP280;61985;51.070;14.064;2023-05-24T04:12:04;98964.16;;;9.10
73685;BMP280;61985;51.070;14.064;2023-05-24T04:14:30;98964.88;;;9.15
73685;BMP280;61985;51.070;14.064;2023-05-24T04:16:55;98965.63;;;9.15
73685;BMP280;61985;51.070;14.064;2023-05-24T04:19:21;98965.28;;;9.13
73685;BMP280;61985;51.070;14.064;2023-05-24T04:21:47;98970.72;;;9.06
73685;BMP280;61985;51.070;14.064;2023-05-24T04:24:12;98974.16;;;9.10
73685;BMP280;61985;51.070;14.064;2023-05-24T04:26:37;98973.09;;;9.00
73685;BMP280;61985;51.070;14.064;2023-05-24T04:29:11;98978.88;;;9.02
73685;BMP280;61985;51.070;14.064;2023-05-24T04:31:40;98986.66;;;8.93
73685;BMP280;61985;51.070;14.064;2023-05-24T04:34:12;98986.69;;;8.89
73685;BMP280;61985;51.070;14.064;2023-05-24T04:36:38;98976.09;;;8.75
73685;BMP280;61985;51.070;14.064;2023-05-24T04:39:05;98994.34;;;8.91
73685;BMP280;61985;51.070;14.064;2023-05-24T04:41:31;98984.84;;;8.83
73685;BMP280;61985;51.070;14.064;2023-05-24T04:43:59;98994.03;;;8.85
73685;BMP280;61985;51.070;14.064;2023-05-24T04:46:25;98998.88;;;8.98
73685;BMP280;61985;51.070;14.064;2023-05-24T04:48:54;98987.38;;;8.93
73685;BMP280;61985;51.070;14.064;2023-05-24T04:51:22;98993.78;;;9.03
73685;BMP280;61985;51.070;14.064;2023-05-24T04:53:48;98998.69;;;9.12
73685;BMP280;61985;51.070;14.064;2023-05-24T04:56:13;98997.16;;;9.11
73685;BMP280;61985;51.070;14.064;2023-05-24T04:58:41;99002.94;;;9.09
73685;BMP280;61985;51.070;14.064;2023-05-24T05:01:06;99002.63;;;9.04
73685;BMP280;61985;51.070;14.064;2023-05-24T05:03:32;99000.78;;;9.01
73685;BMP280;61985;51.070;14.064;2023-05-24T05:05:58;99008.09;;;8.97
73685;BMP280;61985;51.070;14.064;2023-05-24T05:08:23;99008.88;;;8.93
73685;BMP280;61985;51.070;14.064;2023-05-24T05:10:49;99008.16;;;8.93
73685;BMP280;61985;51.070;14.064;2023-05-24T05:13:17;99008.84;;;8.97
73685;BMP280;61985;51.070;14.064;2023-05-24T05:15:49;99011.53;;;8.97
73685;BMP280;61985;51.070;14.064;2023-05-24T05:18:14;99022.53;;;9.10
73685;BMP280;61985;51.070;14.064;2023-05-24T05:20:40;99017.09;;;9.13
73685;BMP280;61985;51.070;14.064;2023-05-24T06:22:32;99054.41;;;10.64
73685;BMP280;61985;51.070;14.064;2023-05-24T06:24:57;99049.84;;;10.61
73685;BMP280;61985;51.070;14.064;2023-05-24T06:27:22;99056.88;;;10.55
73685;BMP280;61985;51.070;14.064;2023-05-24T06:32:39;99063.25;;;10.41
73685;BMP280;61985;51.070;14.064;2023-05-24T06:35:10;99056.19;;;10.51
73685;BMP280;61985;51.070;14.064;2023-05-24T06:37:35;99061.47;;;10.34
73685;BMP280;61985;51.070;14.064;2023-05-24T06:40:13;99057.88;;;10.41
73685;BMP280;61985;51.070;14.064;2023-05-24T06:42:50;99053.97;;;10.45
73685;BMP280;61985;51.070;14.064;2023-05-24T06:45:15;99053.84;;;10.53
73685;BMP280;61985;51.070;14.064;2023-05-24T06:47:40;99059.59;;;10.55
73685;BMP280;61985;51.070;14.064;2023-05-24T06:50:06;99060.31;;;10.35
73685;BMP280;61985;51.070;14.064;2023-05-24T06:52:32;99058.38;;;10.36
73685;BMP280;61985;51.070;14.064;2023-05-24T06:54:58;99061.47;;;10.34
73685;BMP280;61985;51.070;14.064;2023-05-24T06:57:23;99063.94;;;10.25
73685;BMP280;61985;51.070;14.064;2023-05-24T06:59:49;99062.88;;;10.19
73685;BMP280;61985;51.070;14.064;2023-05-24T07:02:14;99065.97;;;10.41
73685;BMP280;61985;51.070;14.064;2023-05-24T07:04:40;99063.69;;;10.39
73685;BMP280;61985;51.070;14.064;2023-05-24T07:07:08;99066.50;;;10.56
73685;BMP280;61985;51.070;14.064;2023-05-24T07:09:37;99072.31;;;10.74
73685;BMP280;61985;51.070;14.064;2023-05-24T07:12:03;99064.84;;;10.62
73685;BMP280;61985;51.070;14.064;2023-05-24T07:14:29;99069.91;;;10.36
73685;BMP280;61985;51.070;14.064;2023-05-24T07:16:54;99068.97;;;10.46
73685;BMP280;61985;51.070;14.064;2023-05-24T07:19:21;99065.22;;;10.40
73685;BMP280;61985;51.070;14.064;2023-05-24T07:21:46;99078.56;;;10.24
73685;BMP280;61985;51.070;14.064;2023-05-24T07:24:12;99075.69;;;10.35
73685;BMP280;61985;51.070;14.064;2023-05-24T07:26:37;99077.19;;;10.39
73685;BMP280;61985;51.070;14.064;2023-05-24T07:29:03;99075.44;;;10.29
73685;BMP280;61985;51.070;14.064;2023-05-24T07:31:28;99079.09;;;10.15
73685;BMP280;61985;51.070;14.064;2023-05-24T07:33:56;99069.81;;;10.20
73685;BMP280;61985;51.070;14.064;2023-05-24T07:36:22;99085.13;;;10.23
73685;BMP280;61985;51.070;14.064;2023-05-24T07:38:49;99085.13;;;10.23
73685;BMP280;61985;51.070;14.064;2023-05-24T07:41:14;99084.91;;;10.37
73685;BMP280;61985;51.070;14.064;2023-05-24T07:43:40;99087.16;;;10.62
73685;BMP280;61985;51.070;14.064;2023-05-24T07:46:05;99076.94;;;10.94
73685;BMP280;61985;51.070;14.064;2023-05-24T07:48:31;99081.28;;;11.07
73685;BMP280;61985;51.070;14.064;2023-05-24T07:50:56;99068.16;;;11.10
73685;BMP280;61985;51.070;14.064;2023-05-24T07:53:22;99076.91;;;10.74
73685;BMP280;61985;51.070;14.064;2023-05-24T07:55:47;99084.59;;;10.75
73685;BMP280;61985;51.070;14.064;2023-05-24T07:58:12;99079.97;;;10.56
73685;BMP280;61985;51.070;14.064;2023-05-24T08:00:38;99085.84;;;10.51
73685;BMP280;61985;51.070;14.064;2023-05-24T08:03:05;99090.69;;;10.36
73685;BMP280;61985;51.070;14.064;2023-05-24T08:05:30;99092.66;;;10.32
73685;BMP280;61985;51.070;14.064;2023-05-24T08:07:56;99095.16;;;10.22
73685;BMP280;61985;51.070;14.064;2023-05-24T08:10:21;99093.91;;;10.27
73685;BMP280;61985;51.070;14.064;2023-05-24T08:12:47;99097.63;;;10.37
73685;BMP280;61985;51.070;14.064;2023-05-24T08:15:15;99096.50;;;10.34
73685;BMP280;61985;51.070;14.064;2023-05-24T08:17:41;99092.81;;;10.24
73685;BMP280;61985;51.070;14.064;2023-05-24T08:20:07;99092.63;;;10.35
73685;BMP280;61985;51.070;14.064;2023-05-24T08:22:34;99102.06;;;10.47
73685;BMP280;61985;51.070;14.064;2023-05-24T08:25:00;99097.78;;;10.26
73685;BMP280;61985;51.070;14.064;2023-05-24T08:27:25;99098.28;;;10.41
73685;BMP280;61985;51.070;14.064;2023-05-24T08:29:53;99104.50;;;10.61
73685;BMP280;61985;51.070;14.064;2023-05-24T08:32:18;99098.91;;;10.72
73685;BMP280;61985;51.070;14.064;2023-05-24T08:34:44;99102.75;;;10.95
73685;BMP280;61985;51.070;14.064;2023-05-24T08:37:09;99105.88;;;11.13
73685;BMP280;61985;51.070;14.064;2023-05-24T08:39:35;99111.84;;;11.41
73685;BMP280;61985;51.070;14.064;2023-05-24T08:42:01;99108.59;;;11.50
73685;BMP280;61985;51.070;14.064;2023-05-24T08:44:28;99106.72;;;11.46
73685;BMP280;61985;51.070;14.064;2023-05-24T08:46:57;99121.50;;;11.38
73685;BMP280;61985;51.070;14.064;2023-05-24T08:49:23;99109.75;;;11.48
73685;BMP280;61985;51.070;14.064;2023-05-24T08:51:48;99109.16;;;11.41
73685;BMP280;61985;51.070;14.064;2023-05-24T08:54:16;99118.00;;;11.41
73685;BMP280;61985;51.070;14.064;2023-05-24T08:56:46;99113.38;;;11.42
73685;BMP280;61985;51.070;14.064;2023-05-24T08:59:12;99123.59;;;11.31
73685;BMP280;61985;51.070;14.064;2023-05-24T09:01:39;99127.63;;;11.02
73685;BMP280;61985;51.070;14.064;2023-05-24T09:04:06;99119.25;;;11.37
73685;BMP280;61985;51.070;14.064;2023-05-24T09:06:32;99125.44;;;11.17
73685;BMP280;61985;51.070;14.064;2023-05-24T09:08:58;99122.97;;;11.23
73685;BMP280;61985;51.070;14.064;2023-05-24T09:11:25;99130.63;;;11.64
73685;BMP280;61985;51.070;14.064;2023-05-24T09:13:51;99129.50;;;11.82
73685;BMP280;61985;51.070;14.064;2023-05-24T09:16:19;99121.22;;;11.89
73685;BMP280;61985;51.070;14.064;2023-05-24T09:18:45;99131.75;;;11.83
73685;BMP280;61985;51.070;14.064;2023-05-24T09:21:10;99122.22;;;11.79
73685;BMP280;61985;51.070;14.064;2023-05-24T09:23:36;99127.78;;;11.88
73685;BMP280;61985;51.070;14.064;2023-05-24T09:26:06;99128.31;;;11.99
73685;BMP280;61985;51.070;14.064;2023-05-24T09:28:32;99130.38;;;11.75
73685;BMP280;61985;51.070;14.064;2023-05-24T09:30:59;99142.81;;;11.73
73685;BMP280;61985;51.070;14.064;2023-05-24T09:33:32;99130.63;;;11.64
73685;BMP280;61985;51.070;14.064;2023-05-24T09:36:00;99133.72;;;11.63
73685;BMP280;61985;51.070;14.064;2023-05-24T09:38:26;99133.63;;;11.50
73685;BMP280;61985;51.070;14.064;2023-05-24T09:41:05;99126.84;;;11.62
73685;BMP280;61985;51.070;14.064;2023-05-24T09:43:32;99127.44;;;11.86
73685;BMP280;61985;51.070;14.064;2023-05-24T09:46:02;99130.13;;;11.70
73685;BMP280;61985;51.070;14.064;2023-05-24T09:48:29;99133.63;;;11.50
73685;BMP280;61985;51.070;14.064;2023-05-24T09:51:01;99130.38;;;11.59
73685;BMP280;61985;51.070;14.064;2023-05-24T09:53:26;99129.78;;;11.51
73685;BMP280;61985;51.070;14.064;2023-05-24T09:55:53;99138.28;;;11.50
73685;BMP280;61985;51.070;14.064;2023-05-24T09:58:20;99140.09;;;11.36
73685;BMP280;61985;51.070;14.064;2023-05-24T10:00:46;99138.22;;;11.33
73685;BMP280;61985;51.070;14.064;2023-05-24T10:03:11;99140.78;;;11.40
73685;BMP280;61985;51.070;14.064;2023-05-24T10:05:41;99149.41;;;11.52
73685;BMP280;61985;51.070;14.064;2023-05-24T10:08:08;99152.25;;;11.81
73685;BMP280;61985;51.070;14.064;2023-05-24T10:10:34;99153.69;;;12.02
73685;BMP280;61985;51.070;14.064;2023-05-24T10:13:00;99143.00;;;12.15
73685;BMP280;61985;51.070;14.064;2023-05-24T10:15:26;99146.19;;;12.10
73685;BMP280;61985;51.070;14.064;2023-05-24T10:17:56;99150.66;;;12.33
73685;BMP280;61985;51.070;14.064;2023-05-24T10:20:25;99150.28;;;12.18
73685;BMP280;61985;51.070;14.064;2023-05-24T10:22:53;99146.53;;;12.44
73685;BMP280;61985;51.070;14.064;2023-05-24T10:25:21;99154.22;;;12.30
73685;BMP280;61985;51.070;14.064;2023-05-24T10:27:53;99154.63;;;12.28
73685;BMP280;61985;51.070;14.064;2023-05-24T10:32:46;99159.44;;;12.20
73685;BMP280;61985;51.070;14.064;2023-05-24T10:35:13;99157.69;;;12.30
73685;BMP280;61985;51.070;14.064;2023-05-24T10:37:45;99160.34;;;12.63
73685;BMP280;61985;51.070;14.064;2023-05-24T10:40:21;99159.09;;;12.97
73685;BMP280;61985;51.070;14.064;2023-05-24T10:42:50;99144.63;;;13.16
73685;BMP280;61985;51.070;14.064;2023-05-24T10:47:47;99146.19;;;13.69
73685;BMP280;61985;51.070;14.064;2023-05-24T10:50:17;99159.00;;;13.55
73685;BMP280;61985;51.070;14.064;2023-05-24T10:52:42;99146.31;;;13.52
73685;BMP280;61985;51.070;14.064;2023-05-24T10:55:09;99154.22;;;13.72
73685;BMP280;61985;51.070;14.064;2023-05-24T10:57:36;99156.84;;;13.76
73685;BMP280;61985;51.070;14.064;2023-05-24T11:03:00;99164.41;;;13.81
73685;BMP280;61985;51.070;14.064;2023-05-24T11:05:47;99174.78;;;13.57
73685;BMP280;61985;51.070;14.064;2023-05-24T11:11:00;99178.41;;;13.24
73685;BMP280;61985;51.070;14.064;2023-05-24T11:13:26;99170.53;;;13.30
73685;BMP280;61985;51.070;14.064;2023-05-24T11:15:51;99180.53;;;13.59
73685;BMP280;61985;51.070;14.064;2023-05-24T11:18:21;99170.78;;;14.47
73685;BMP280;61985;51.070;14.064;2023-05-24T11:20:47;99167.44;;;15.32
73685;BMP280;61985;51.070;14.064;2023-05-24T11:23:14;99172.34;;;15.15
73685;BMP280;61985;51.070;14.064;2023-05-24T11:25:40;99162.22;;;15.15
73685;BMP280;61985;51.070;14.064;2023-05-24T11:28:08;99158.72;;;14.83
73685;BMP280;61985;51.070;14.064;2023-05-24T11:30:42;99156.31;;;14.63
73685;BMP280;61985;51.070;14.064;2023-05-24T11:33:19;99153.75;;;14.47
73685;BMP280;61985;51.070;14.064;2023-05-24T11:35:45;99164.75;;;14.43
73685;BMP280;61985;51.070;14.064;2023-05-24T11:38:12;99157.09;;;14.29
73685;BMP280;61985;51.070;14.064;2023-05-24T11:40:42;99149.25;;;14.88
73685;BMP280;61985;51.070;14.064;2023-05-24T11:43:12;99150.78;;;15.52
73685;BMP280;61985;51.070;14.064;2023-05-24T11:45:40;99144.13;;;15.43
73685;BMP280;61985;51.070;14.064;2023-05-24T11:48:07;99140.97;;;15.45
73685;BMP280;61985;51.070;14.064;2023-05-24T11:50:39;99141.72;;;16.32
73685;BMP280;61985;51.070;14.064;2023-05-24T11:53:08;99137.03;;;16.33
73685;BMP280;61985;51.070;14.064;2023-05-24T11:55:34;99147.44;;;16.16
73685;BMP280;61985;51.070;14.064;2023-05-24T11:58:00;99148.78;;;16.02
73685;BMP280;61985;51.070;14.064;2023-05-24T12:00:27;99146.75;;;15.56
73685;BMP280;61985;51.070;14.064;2023-05-24T12:02:56;99156.69;;;15.50
73685;BMP280;61985;51.070;14.064;2023-05-24T12:05:22;99157.25;;;15.45
73685;BMP280;61985;51.070;14.064;2023-05-24T12:08:00;99163.25;;;15.40
73685;BMP280;61985;51.070;14.064;2023-05-24T12:10:25;99158.94;;;16.10
73685;BMP280;61985;51.070;14.064;2023-05-24T12:12:51;99160.59;;;16.72
73685;BMP280;61985;51.070;14.064;2023-05-24T12:15:16;99154.78;;;17.41
73685;BMP280;61985;51.070;14.064;2023-05-24T12:17:43;99155.69;;;17.47
73685;BMP280;61985;51.070;14.064;2023-05-24T12:20:14;99162.97;;;17.41
73685;BMP280;61985;51.070;14.064;2023-05-24T12:22:47;99155.84;;;17.76
73685;BMP280;61985;51.070;14.064;2023-05-24T12:25:16;99156.53;;;18.10
73685;BMP280;61985;51.070;14.064;2023-05-24T12:27:44;99149.41;;;18.43
73685;BMP280;61985;51.070;14.064;2023-05-24T12:30:19;99137.00;;;18.56
73685;BMP280;61985;51.070;14.064;2023-05-24T12:32:47;99144.38;;;18.80
73685;BMP280;61985;51.070;14.064;2023-05-24T12:35:12;99152.91;;;19.02
73685;BMP280;61985;51.070;14.064;2023-05-24T12:37:38;99148.63;;;18.12
73685;BMP280;61985;51.070;14.064;2023-05-24T12:40:14;99157.13;;;18.44
73685;BMP280;61985;51.070;14.064;2023-05-24T12:42:39;99147.66;;;18.84
73685;BMP280;61985;51.070;14.064;2023-05-24T12:45:05;99146.72;;;18.72
73685;BMP280;61985;51.070;14.064;2023-05-24T12:47:31;99145.50;;;18.88
73685;BMP280;61985;51.070;14.064;2023-05-24T12:49:56;99149.63;;;18.54
73685;BMP280;61985;51.070;14.064;2023-05-24T12:52:22;99153.19;;;18.45
73685;BMP280;61985;51.070;14.064;2023-05-24T12:54:47;99147.72;;;19.05
73685;BMP280;61985;51.070;14.064;2023-05-24T12:57:13;99157.50;;;19.26
73685;BMP280;61985;51.070;14.064;2023-05-24T12:59:38;99158.31;;;19.32
73685;BMP280;61985;51.070;14.064;2023-05-24T13:02:06;99151.63;;;18.14
73685;BMP280;61985;51.070;14.064;2023-05-24T13:04:32;99145.47;;;17.32
73685;BMP280;61985;51.070;14.064;2023-05-24T13:06:58;99155.06;;;17.09
73685;BMP280;61985;51.070;14.064;2023-05-24T13:09:24;99154.88;;;18.28
73685;BMP280;61985;51.070;14.064;2023-05-24T13:11:50;99144.28;;;18.74
73685;BMP280;61985;51.070;14.064;2023-05-24T13:14:16;99134.19;;;18.80
73685;BMP280;61985;51.070;14.064;2023-05-24T13:16:42;99139.56;;;18.60
73685;BMP280;61985;51.070;14.064;2023-05-24T13:19:08;99143.50;;;19.04
73685;BMP280;61985;51.070;14.064;2023-05-24T13:21:34;99138.50;;;19.17
73685;BMP280;61985;51.070;14.064;2023-05-24T13:23:59;99149.84;;;18.80
73685;BMP280;61985;51.070;14.064;2023-05-24T13:26:24;99143.75;;;18.16
73685;BMP280;61985;51.070;14.064;2023-05-24T13:28:50;99147.00;;;18.89
73685;BMP280;61985;51.070;14.064;2023-05-24T13:31:15;99139.53;;;19.05
73685;BMP280;61985;51.070;14.064;2023-05-24T13:33:41;99146.53;;;19.61
73685;BMP280;61985;51.070;14.064;2023-05-24T13:36:07;99150.41;;;19.19
73685;BMP280;61985;51.070;14.064;2023-05-24T13:38:32;99154.75;;;18.22
73685;BMP280;61985;51.070;14.064;2023-05-24T13:40:58;99155.06;;;18.39
73685;BMP280;61985;51.070;14.064;2023-05-24T13:43:23;99149.94;;;18.17
73685;BMP280;61985;51.070;14.064;2023-05-24T13:45:49;99146.09;;;18.24
73685;BMP280;61985;51.070;14.064;2023-05-24T13:48:14;99135.66;;;18.96
73685;BMP280;61985;51.070;14.064;2023-05-24T13:50:40;99129.97;;;19.50
73685;BMP280;61985;51.070;14.064;2023-05-24T13:53:05;99135.78;;;19.37
73685;BMP280;61985;51.070;14.064;2023-05-24T13:55:34;99128.47;;;19.90
73685;BMP280;61985;51.070;14.064;2023-05-24T13:58:02;99131.28;;;19.75
73685;BMP280;61985;51.070;14.064;2023-05-24T14:00:29;99133.09;;;20.25
73685;BMP280;61985;51.070;14.064;2023-05-24T14:02:55;99138.06;;;20.53
73685;BMP280;61985;51.070;14.064;2023-05-24T14:05:20;99138.53;;;20.51
73685;BMP280;61985;51.070;14.064;2023-05-24T14:07:47;99136.19;;;20.70
73685;BMP280;61985;51.070;14.064;2023-05-24T14:10:12;99141.44;;;20.73
73685;BMP280;61985;51.070;14.064;2023-05-24T14:12:38;99130.34;;;20.57
73685;BMP280;61985;51.070;14.064;2023-05-24T14:15:04;99137.13;;;20.61
73685;BMP280;61985;51.070;14.064;2023-05-24T14:17:30;99129.44;;;21.03
73685;BMP280;61985;51.070;14.064;2023-05-24T14:19:56;99127.00;;;21.10
73685;BMP280;61985;51.070;14.064;2023-05-24T14:22:21;99131.44;;;21.02
73685;BMP280;61985;51.070;14.064;2023-05-24T14:24:49;99130.44;;;20.68
73685;BMP280;61985;51.070;14.064;2023-05-24T14:27:14;99136.00;;;21.17
73685;BMP280;61985;51.070;14.064;2023-05-24T14:29:40;99127.22;;;21.55
73685;BMP280;61985;51.070;14.064;2023-05-24T14:32:05;99138.56;;;21.86
73685;BMP280;61985;51.070;14.064;2023-05-24T14:34:31;99134.63;;;22.04
73685;BMP280;61985;51.070;14.064;2023-05-24T14:36:56;99128.31;;;21.86
73685;BMP280;61985;51.070;14.064;2023-05-24T14:39:21;99140.44;;;21.57
73685;BMP280;61985;51.070;14.064;2023-05-24T14:41:47;99128.28;;;21.64
73685;BMP280;61985;51.070;14.064;2023-05-24T14:44:12;99129.84;;;21.87
73685;BMP280;61985;51.070;14.064;2023-05-24T14:46:38;99133.56;;;20.55
73685;BMP280;61985;51.070;14.064;2023-05-24T14:49:04;99122.25;;;19.49
73685;BMP280;61985;51.070;14.064;2023-05-24T14:51:29;99130.94;;;19.27
73685;BMP280;61985;51.070;14.064;2023-05-24T14:53:55;99129.84;;;19.04
73685;BMP280;61985;51.070;14.064;2023-05-24T14:56:20;99126.38;;;18.88
73685;BMP280;61985;51.070;14.064;2023-05-24T14:58:46;99118.91;;;19.39
73685;BMP280;61985;51.070;14.064;2023-05-24T15:01:11;99126.44;;;19.64
73685;BMP280;61985;51.070;14.064;2023-05-24T15:03:36;99130.91;;;20.08
73685;BMP280;61985;51.070;14.064;2023-05-24T15:06:03;99126.59;;;19.76
73685;BMP280;61985;51.070;14.064;2023-05-24T15:08:28;99132.19;;;19.11
73685;BMP280;61985;51.070;14.064;2023-05-24T15:10:54;99134.69;;;19.91
73685;BMP280;61985;51.070;14.064;2023-05-24T15:13:19;99131.63;;;20.29
73685;BMP280;61985;51.070;14.064;2023-05-24T15:15:46;99137.22;;;20.72
73685;BMP280;61985;51.070;14.064;2023-05-24T15:18:12;99130.91;;;20.92
73685;BMP280;61985;51.070;14.064;2023-05-24T15:20:37;99121.56;;;20.47